createdAt,value
2023-03-19T00:09:58.548Z,24.30
2023-03-19T00:20:01.906Z,24.20
2023-03-19T00:30:07.376Z,23.20
2023-03-19T00:40:12.058Z,24.20
2023-03-19T00:50:16.171Z,22.10
2023-03-19T01:00:20.794Z,19.60
2023-03-19T01:10:25.057Z,20.60
2023-03-19T01:20:28.184Z,17.50
2023-03-19T01:30:31.745Z,19.20
2023-03-19T01:40:49.486Z,20.20
2023-03-19T01:50:55.547Z,18.40
2023-03-19T02:01:03.462Z,17.40
2023-03-19T02:11:09.635Z,18.20
2023-03-19T02:21:18.157Z,16.50
2023-03-19T02:31:23.316Z,15.20
2023-03-19T02:41:27.862Z,14.60
2023-03-19T02:51:31.502Z,12.20
2023-03-19T03:01:35.674Z,12.70
2023-03-19T03:11:41.260Z,11.70
2023-03-19T03:21:45.425Z,11.10
2023-03-19T03:31:48.546Z,11.20
2023-03-19T03:41:52.702Z,10.80
2023-03-19T03:51:56.271Z,11.10
2023-03-19T04:01:59.599Z,11.20
2023-03-19T04:12:05.131Z,11.70
2023-03-19T04:22:08.716Z,9.80
2023-03-19T04:32:11.919Z,8.70
2023-03-19T04:42:15.621Z,10.30
2023-03-19T04:52:31.402Z,9.70
2023-03-19T05:02:34.925Z,10.90
2023-03-19T05:12:38.848Z,10.10
2023-03-19T05:22:42.669Z,9.90
2023-03-19T05:32:47.779Z,10.50
2023-03-19T05:43:05.810Z,8.90
2023-03-19T05:53:09.715Z,10.80
2023-03-19T06:03:17.804Z,10.40
2023-03-19T06:13:24.282Z,12.80
2023-03-19T06:23:34.354Z,12.90
2023-03-19T06:33:38.802Z,13.90
2023-03-19T06:43:42.472Z,9.70
2023-03-19T06:53:45.627Z,7.20
2023-03-19T07:03:48.948Z,7.40
2023-03-19T07:13:52.749Z,6.80
2023-03-19T07:23:56.118Z,8.00
2023-03-19T07:33:59.164Z,7.40
2023-03-19T07:44:02.288Z,9.70
2023-03-19T07:54:05.465Z,8.90
2023-03-19T08:04:09.080Z,6.50
2023-03-19T08:14:12.309Z,6.00
2023-03-19T08:24:15.547Z,5.70
2023-03-19T08:34:18.577Z,5.30
2023-03-19T08:44:21.755Z,4.90
2023-03-19T08:54:24.835Z,5.70
2023-03-19T09:04:28.704Z,6.50
2023-03-19T09:14:31.944Z,6.70
2023-03-19T09:24:35.326Z,7.10
2023-03-19T09:34:40.093Z,5.30
2023-03-19T09:44:45.830Z,5.10
2023-03-19T09:54:53.984Z,4.10
2023-03-19T10:05:20.432Z,4.60
2023-03-19T10:15:32.516Z,4.00
2023-03-19T10:25:41.583Z,3.80
2023-03-19T10:35:48.890Z,3.50
2023-03-19T10:45:52.348Z,3.40
2023-03-19T10:56:03.650Z,3.60
2023-03-19T11:06:07.845Z,3.70
2023-03-19T11:16:11.522Z,3.70
2023-03-19T11:26:19.541Z,3.50
2023-03-19T11:36:54.686Z,4.40
2023-03-19T11:47:27.101Z,3.40
2023-03-19T11:58:09.882Z,4.10
2023-03-19T12:08:33.944Z,3.80
2023-03-19T12:18:37.375Z,3.80
2023-03-19T12:28:59.015Z,3.50
2023-03-19T12:39:10.688Z,4.10
2023-03-19T12:49:42.206Z,3.40
2023-03-19T12:59:59.061Z,3.70
2023-03-19T13:10:11.557Z,3.80
2023-03-19T13:20:47.131Z,3.80
2023-03-19T13:31:19.790Z,3.60
2023-03-19T13:41:35.095Z,3.20
2023-03-19T13:51:39.881Z,3.10
2023-03-19T14:01:47.723Z,3.20
2023-03-19T14:11:52.226Z,3.30
2023-03-19T14:21:56.003Z,5.80
2023-03-19T14:32:07.352Z,8.80
2023-03-19T14:42:29.622Z,6.20
2023-03-19T14:52:36.874Z,7.20
2023-03-19T15:02:44.562Z,6.10
2023-03-19T15:13:25.984Z,4.50
2023-03-19T15:23:31.256Z,5.20
2023-03-19T15:33:41.554Z,5.20
2023-03-19T15:43:47.527Z,5.40
2023-03-19T15:53:52.276Z,5.30
2023-03-19T16:03:57.944Z,5.10
2023-03-19T16:14:09.587Z,9.10
2023-03-19T16:24:31.424Z,5.90
2023-03-19T16:34:43.777Z,11.70
2023-03-19T16:44:47.860Z,7.60
2023-03-19T16:54:52.242Z,11.20
2023-03-19T17:04:56.543Z,12.80
2023-03-19T17:14:59.748Z,17.00
2023-03-19T17:25:02.856Z,14.90
2023-03-19T17:35:15.091Z,14.20
2023-03-19T17:45:25.301Z,14.50
2023-03-19T17:55:29.894Z,18.00
2023-03-19T18:05:33.059Z,17.70
2023-03-19T18:15:38.128Z,18.50
2023-03-19T18:25:41.288Z,17.50
2023-03-19T18:35:45.895Z,20.00
2023-03-19T18:45:52.985Z,18.10
2023-03-19T18:55:57.508Z,16.60
2023-03-19T19:06:00.689Z,21.50
2023-03-19T19:16:06.061Z,25.30
2023-03-19T19:26:22.210Z,21.50
2023-03-19T19:36:25.933Z,24.40
2023-03-19T19:46:31.885Z,28.70
2023-03-19T19:56:35.227Z,27.30
2023-03-19T20:06:38.785Z,23.70
2023-03-19T20:16:42.176Z,28.70
2023-03-19T20:26:45.776Z,26.80
2023-03-19T20:36:48.896Z,33.50
2023-03-19T20:46:52.604Z,28.80
2023-03-19T20:56:56.411Z,26.10
2023-03-19T21:06:59.630Z,26.60
2023-03-19T21:17:03.854Z,26.60
2023-03-19T21:27:17.976Z,26.80
2023-03-19T21:37:21.319Z,29.80
2023-03-19T21:47:26.135Z,25.50
2023-03-19T21:57:29.263Z,28.10
2023-03-19T22:07:32.519Z,25.30
2023-03-19T22:17:35.773Z,35.90
2023-03-19T22:27:41.133Z,27.60
2023-03-19T22:37:44.952Z,25.30
2023-03-19T22:47:48.212Z,23.20
2023-03-19T22:57:51.723Z,23.60
2023-03-19T23:07:55.916Z,21.50
2023-03-19T23:18:00.187Z,19.90
2023-03-19T23:28:03.261Z,18.40
2023-03-19T23:38:07.120Z,17.00
2023-03-19T23:48:21.954Z,16.30
2023-03-19T23:58:40.171Z,17.50
